Tiger, Georgia
Current Conditions -  °F | °C
As of 8:35 PM on Monday 20 Oct 2014 (Local Time) from KTOC Reporting Station
Broken Clouds Broken Clouds  
Wind Chill: 62°   Ceiling: 10000
Heat Index: 62°   Visibility: 10mi
Dew Point: 53°   Wind: 3mph
Humidity: 72%   Direction: 240°WSW
Pressure: 30"   Gusts: NA
Location:  34.85°N, 83.43°W
Report Text: KTOC 210035Z AUTO 24003KT 10SM BKN100 17/12 A3000 RMK AO2 T01670116
Loading
Personal Weather Stations






























Interactive Weather Map
Tropical Storm Tracking
New forecast layout! Learn more

10-Day Weather Forecast

Advertisements
Track Severe Weather on mobile